sensor_id;sensor_type;location;lat;lon;timestamp;P1;durP1;ratioP1;P2;durP2;ratioP2
13240;SDS011;6687;47.790;7.322;2023-11-18T06:19:14;0.63;;;0.40;;
13240;SDS011;6687;47.790;7.322;2023-11-18T06:21:41;0.43;;;0.43;;
13240;SDS011;6687;47.790;7.322;2023-11-18T06:24:08;0.50;;;0.50;;
13240;SDS011;6687;47.790;7.322;2023-11-18T06:26:36;0.50;;;0.50;;
13240;SDS011;6687;47.790;7.322;2023-11-18T06:29:03;0.38;;;0.38;;
13240;SDS011;6687;47.790;7.322;2023-11-18T06:31:31;0.52;;;0.30;;
13240;SDS011;6687;47.790;7.322;2023-11-18T06:33:58;0.52;;;0.52;;
13240;SDS011;6687;47.790;7.322;2023-11-18T06:36:26;0.30;;;0.30;;
13240;SDS011;6687;47.790;7.322;2023-11-18T06:38:53;0.30;;;0.30;;
13240;SDS011;6687;47.790;7.322;2023-11-18T06:41:21;0.20;;;0.20;;
13240;SDS011;6687;47.790;7.322;2023-11-18T06:43:51;0.40;;;0.40;;
13240;SDS011;6687;47.790;7.322;2023-11-18T06:46:22;0.13;;;0.13;;
13240;SDS011;6687;47.790;7.322;2023-11-18T06:48:49;0.38;;;0.38;;
13240;SDS011;6687;47.790;7.322;2023-11-18T06:51:19;0.73;;;0.40;;
13240;SDS011;6687;47.790;7.322;2023-11-18T06:53:49;0.40;;;0.40;;
13240;SDS011;6687;47.790;7.322;2023-11-18T06:56:16;0.30;;;0.30;;
13240;SDS011;6687;47.790;7.322;2023-11-18T06:58:43;0.30;;;0.30;;
13240;SDS011;6687;47.790;7.322;2023-11-18T07:01:11;0.47;;;0.47;;
13240;SDS011;6687;47.790;7.322;2023-11-18T07:03:39;0.50;;;0.50;;
13240;SDS011;6687;47.790;7.322;2023-11-18T07:06:07;0.75;;;0.50;;
13240;SDS011;6687;47.790;7.322;2023-11-18T07:08:34;0.70;;;0.57;;
13240;SDS011;6687;47.790;7.322;2023-11-18T07:11:03;0.43;;;0.43;;
13240;SDS011;6687;47.790;7.322;2023-11-18T07:13:31;1.35;;;0.60;;
13240;SDS011;6687;47.790;7.322;2023-11-18T07:15:59;0.60;;;0.60;;
13240;SDS011;6687;47.790;7.322;2023-11-18T07:18:28;0.45;;;0.45;;
13240;SDS011;6687;47.790;7.322;2023-11-18T07:20:55;0.40;;;0.40;;
13240;SDS011;6687;47.790;7.322;2023-11-18T07:23:23;0.28;;;0.28;;
13240;SDS011;6687;47.790;7.322;2023-11-18T07:25:50;0.60;;;0.57;;
13240;SDS011;6687;47.790;7.322;2023-11-18T07:28:18;0.40;;;0.40;;
13240;SDS011;6687;47.790;7.322;2023-11-18T07:30:45;0.35;;;0.35;;
13240;SDS011;6687;47.790;7.322;2023-11-18T07:33:12;0.38;;;0.38;;
13240;SDS011;6687;47.790;7.322;2023-11-18T07:35:39;0.50;;;0.50;;
13240;SDS011;6687;47.790;7.322;2023-11-18T07:38:06;0.47;;;0.47;;
13240;SDS011;6687;47.790;7.322;2023-11-18T07:40:34;0.50;;;0.50;;
13240;SDS011;6687;47.790;7.322;2023-11-18T07:43:02;0.65;;;0.65;;
13240;SDS011;6687;47.790;7.322;2023-11-18T07:45:35;0.57;;;0.57;;
13240;SDS011;6687;47.790;7.322;2023-11-18T07:48:03;0.80;;;0.80;;
13240;SDS011;6687;47.790;7.322;2023-11-18T07:50:31;0.75;;;0.75;;
13240;SDS011;6687;47.790;7.322;2023-11-18T07:52:58;1.23;;;0.80;;
13240;SDS011;6687;47.790;7.322;2023-11-18T07:55:25;0.80;;;0.80;;
13240;SDS011;6687;47.790;7.322;2023-11-18T07:57:52;1.05;;;0.95;;
13240;SDS011;6687;47.790;7.322;2023-11-18T08:00:19;1.95;;;0.82;;
13240;SDS011;6687;47.790;7.322;2023-11-18T08:02:47;0.88;;;0.88;;
13240;SDS011;6687;47.790;7.322;2023-11-18T08:05:14;0.85;;;0.82;;
13240;SDS011;6687;47.790;7.322;2023-11-18T08:07:40;1.50;;;1.40;;
13240;SDS011;6687;47.790;7.322;2023-11-18T08:10:09;1.20;;;0.98;;
13240;SDS011;6687;47.790;7.322;2023-11-18T08:12:38;1.20;;;1.15;;
13240;SDS011;6687;47.790;7.322;2023-11-18T08:15:05;0.68;;;0.68;;
13240;SDS011;6687;47.790;7.322;2023-11-18T08:17:34;0.82;;;0.70;;
13240;SDS011;6687;47.790;7.322;2023-11-18T08:20:02;0.93;;;0.77;;
13240;SDS011;6687;47.790;7.322;2023-11-18T08:22:38;0.80;;;0.52;;
13240;SDS011;6687;47.790;7.322;2023-11-18T08:25:05;0.57;;;0.57;;
13240;SDS011;6687;47.790;7.322;2023-11-18T08:27:33;0.77;;;0.77;;
13240;SDS011;6687;47.790;7.322;2023-11-18T08:30:00;0.60;;;0.60;;
13240;SDS011;6687;47.790;7.322;2023-11-18T08:32:30;0.68;;;0.60;;
13240;SDS011;6687;47.790;7.322;2023-11-18T08:34:57;0.57;;;0.57;;
13240;SDS011;6687;47.790;7.322;2023-11-18T08:37:25;0.88;;;0.43;;
13240;SDS011;6687;47.790;7.322;2023-11-18T08:39:53;1.98;;;1.88;;
13240;SDS011;6687;47.790;7.322;2023-11-18T08:42:19;1.75;;;1.30;;
13240;SDS011;6687;47.790;7.322;2023-11-18T08:44:47;0.60;;;0.60;;
13240;SDS011;6687;47.790;7.322;2023-11-18T08:47:13;0.60;;;0.55;;
13240;SDS011;6687;47.790;7.322;2023-11-18T08:49:42;0.70;;;0.60;;
13240;SDS011;6687;47.790;7.322;2023-11-18T08:52:11;0.60;;;0.60;;
13240;SDS011;6687;47.790;7.322;2023-11-18T08:54:39;0.55;;;0.55;;
13240;SDS011;6687;47.790;7.322;2023-11-18T08:57:26;0.20;;;0.20;;
13240;SDS011;6687;47.790;7.322;2023-11-18T08:59:59;0.60;;;0.60;;
13240;SDS011;6687;47.790;7.322;2023-11-18T09:02:32;0.50;;;0.50;;
13240;SDS011;6687;47.790;7.322;2023-11-18T09:05:02;0.32;;;0.32;;
13240;SDS011;6687;47.790;7.322;2023-11-18T09:07:37;0.90;;;0.60;;
13240;SDS011;6687;47.790;7.322;2023-11-18T09:10:06;0.35;;;0.35;;
13240;SDS011;6687;47.790;7.322;2023-11-18T09:12:33;0.28;;;0.20;;
13240;SDS011;6687;47.790;7.322;2023-11-18T09:15:00;0.22;;;0.22;;
13240;SDS011;6687;47.790;7.322;2023-11-18T09:17:28;0.60;;;0.60;;
13240;SDS011;6687;47.790;7.322;2023-11-18T09:19:55;0.70;;;0.70;;
13240;SDS011;6687;47.790;7.322;2023-11-18T09:22:22;2.45;;;0.93;;
13240;SDS011;6687;47.790;7.322;2023-11-18T09:24:49;0.60;;;0.40;;
13240;SDS011;6687;47.790;7.322;2023-11-18T09:27:17;0.28;;;0.28;;
13240;SDS011;6687;47.790;7.322;2023-11-18T09:29:44;0.35;;;0.35;;
13240;SDS011;6687;47.790;7.322;2023-11-18T09:32:10;0.52;;;0.52;;
13240;SDS011;6687;47.790;7.322;2023-11-18T09:34:39;0.30;;;0.30;;
13240;SDS011;6687;47.790;7.322;2023-11-18T09:37:06;0.40;;;0.40;;
13240;SDS011;6687;47.790;7.322;2023-11-18T09:39:34;0.82;;;0.65;;
13240;SDS011;6687;47.790;7.322;2023-11-18T09:42:06;0.25;;;0.25;;
13240;SDS011;6687;47.790;7.322;2023-11-18T09:44:37;0.30;;;0.30;;
13240;SDS011;6687;47.790;7.322;2023-11-18T09:47:04;0.43;;;0.30;;
13240;SDS011;6687;47.790;7.322;2023-11-18T09:49:37;0.20;;;0.20;;
13240;SDS011;6687;47.790;7.322;2023-11-18T09:52:07;0.20;;;0.20;;
13240;SDS011;6687;47.790;7.322;2023-11-18T09:54:39;0.30;;;0.30;;
13240;SDS011;6687;47.790;7.322;2023-11-18T09:57:13;0.30;;;0.30;;
13240;SDS011;6687;47.790;7.322;2023-11-18T09:59:45;0.20;;;0.20;;
13240;SDS011;6687;47.790;7.322;2023-11-18T10:02:19;0.32;;;0.28;;
13240;SDS011;6687;47.790;7.322;2023-11-18T10:04:48;0.30;;;0.30;;
13240;SDS011;6687;47.790;7.322;2023-11-18T10:07:22;0.20;;;0.20;;
13240;SDS011;6687;47.790;7.322;2023-11-18T10:09:52;0.57;;;0.57;;
13240;SDS011;6687;47.790;7.322;2023-11-18T10:12:22;0.40;;;0.40;;
13240;SDS011;6687;47.790;7.322;2023-11-18T10:14:50;0.52;;;0.52;;
13240;SDS011;6687;47.790;7.322;2023-11-18T10:17:18;1.95;;;1.25;;
13240;SDS011;6687;47.790;7.322;2023-11-18T10:19:50;1.27;;;1.00;;
13240;SDS011;6687;47.790;7.322;2023-11-18T10:22:23;1.80;;;0.82;;
13240;SDS011;6687;47.790;7.322;2023-11-18T10:24:52;2.88;;;1.85;;
13240;SDS011;6687;47.790;7.322;2023-11-18T10:27:21;1.58;;;0.90;;
13240;SDS011;6687;47.790;7.322;2023-11-18T10:29:51;0.40;;;0.40;;
13240;SDS011;6687;47.790;7.322;2023-11-18T10:32:21;1.52;;;0.77;;
13240;SDS011;6687;47.790;7.322;2023-11-18T10:34:53;0.47;;;0.47;;
13240;SDS011;6687;47.790;7.322;2023-11-18T10:37:20;0.47;;;0.47;;
13240;SDS011;6687;47.790;7.322;2023-11-18T10:39:47;0.82;;;0.80;;
13240;SDS011;6687;47.790;7.322;2023-11-18T10:42:16;0.40;;;0.40;;
13240;SDS011;6687;47.790;7.322;2023-11-18T10:44:55;0.50;;;0.50;;
13240;SDS011;6687;47.790;7.322;2023-11-18T10:47:23;0.55;;;0.55;;
13240;SDS011;6687;47.790;7.322;2023-11-18T10:49:51;1.30;;;0.57;;
13240;SDS011;6687;47.790;7.322;2023-11-18T10:52:19;0.60;;;0.60;;
13240;SDS011;6687;47.790;7.322;2023-11-18T10:54:52;0.50;;;0.50;;
13240;SDS011;6687;47.790;7.322;2023-11-18T10:57:21;0.40;;;0.40;;
13240;SDS011;6687;47.790;7.322;2023-11-18T11:00:03;0.60;;;0.60;;
13240;SDS011;6687;47.790;7.322;2023-11-18T11:02:38;0.70;;;0.70;;
13240;SDS011;6687;47.790;7.322;2023-11-18T11:05:06;1.98;;;0.80;;
13240;SDS011;6687;47.790;7.322;2023-11-18T11:07:33;0.77;;;0.77;;
13240;SDS011;6687;47.790;7.322;2023-11-18T11:10:02;0.80;;;0.80;;
13240;SDS011;6687;47.790;7.322;2023-11-18T11:12:32;0.38;;;0.38;;
13240;SDS011;6687;47.790;7.322;2023-11-18T11:15:04;0.70;;;0.70;;
13240;SDS011;6687;47.790;7.322;2023-11-18T11:17:39;0.93;;;0.52;;
13240;SDS011;6687;47.790;7.322;2023-11-18T11:20:12;0.30;;;0.30;;
13240;SDS011;6687;47.790;7.322;2023-11-18T11:23:00;0.30;;;0.30;;
13240;SDS011;6687;47.790;7.322;2023-11-18T11:25:38;1.10;;;0.95;;
13240;SDS011;6687;47.790;7.322;2023-11-18T11:28:11;0.63;;;0.60;;
13240;SDS011;6687;47.790;7.322;2023-11-18T11:30:44;0.50;;;0.50;;
13240;SDS011;6687;47.790;7.322;2023-11-18T11:33:14;0.82;;;0.82;;
13240;SDS011;6687;47.790;7.322;2023-11-18T11:35:48;0.60;;;0.60;;
13240;SDS011;6687;47.790;7.322;2023-11-18T11:38:22;0.40;;;0.25;;
13240;SDS011;6687;47.790;7.322;2023-11-18T11:40:51;0.88;;;0.88;;
13240;SDS011;6687;47.790;7.322;2023-11-18T11:43:20;0.70;;;0.70;;
13240;SDS011;6687;47.790;7.322;2023-11-18T11:45:49;0.73;;;0.73;;
13240;SDS011;6687;47.790;7.322;2023-11-18T11:48:20;0.70;;;0.70;;
13240;SDS011;6687;47.790;7.322;2023-11-18T11:53:41;0.70;;;0.70;;
13240;SDS011;6687;47.790;7.322;2023-11-18T11:56:12;0.55;;;0.55;;
13240;SDS011;6687;47.790;7.322;2023-11-18T11:58:46;0.68;;;0.68;;
13240;SDS011;6687;47.790;7.322;2023-11-18T12:01:24;0.68;;;0.68;;
13240;SDS011;6687;47.790;7.322;2023-11-18T12:03:57;0.88;;;0.88;;
13240;SDS011;6687;47.790;7.322;2023-11-18T12:06:31;0.68;;;0.68;;
13240;SDS011;6687;47.790;7.322;2023-11-18T12:09:00;0.70;;;0.70;;
13240;SDS011;6687;47.790;7.322;2023-11-18T12:11:32;1.10;;;1.10;;
13240;SDS011;6687;47.790;7.322;2023-11-18T12:14:04;0.80;;;0.70;;
13240;SDS011;6687;47.790;7.322;2023-11-18T12:16:59;1.10;;;1.10;;
13240;SDS011;6687;47.790;7.322;2023-11-18T12:19:35;1.48;;;1.38;;
13240;SDS011;6687;47.790;7.322;2023-11-18T12:22:10;1.30;;;0.93;;
13240;SDS011;6687;47.790;7.322;2023-11-18T12:24:43;1.38;;;0.85;;
13240;SDS011;6687;47.790;7.322;2023-11-18T12:27:12;0.50;;;0.50;;
13240;SDS011;6687;47.790;7.322;2023-11-18T12:29:41;0.98;;;0.95;;
13240;SDS011;6687;47.790;7.322;2023-11-18T12:32:10;0.52;;;0.50;;
13240;SDS011;6687;47.790;7.322;2023-11-18T12:34:51;0.50;;;0.50;;
13240;SDS011;6687;47.790;7.322;2023-11-18T12:40:32;0.75;;;0.70;;
13240;SDS011;6687;47.790;7.322;2023-11-18T12:43:18;1.17;;;1.05;;
13240;SDS011;6687;47.790;7.322;2023-11-18T12:49:10;0.77;;;0.75;;
13240;SDS011;6687;47.790;7.322;2023-11-18T12:51:41;1.30;;;1.20;;
13240;SDS011;6687;47.790;7.322;2023-11-18T12:54:09;1.20;;;1.10;;
13240;SDS011;6687;47.790;7.322;2023-11-18T12:56:38;1.30;;;1.20;;
13240;SDS011;6687;47.790;7.322;2023-11-18T12:59:09;1.63;;;1.17;;
13240;SDS011;6687;47.790;7.322;2023-11-18T13:01:38;0.73;;;0.73;;
13240;SDS011;6687;47.790;7.322;2023-11-18T13:04:07;0.80;;;0.77;;
13240;SDS011;6687;47.790;7.322;2023-11-18T13:06:36;1.67;;;1.58;;
13240;SDS011;6687;47.790;7.322;2023-11-18T13:09:02;0.60;;;0.60;;
13240;SDS011;6687;47.790;7.322;2023-11-18T13:11:34;0.85;;;0.85;;
13240;SDS011;6687;47.790;7.322;2023-11-18T13:14:01;1.60;;;1.05;;
13240;SDS011;6687;47.790;7.322;2023-11-18T13:16:28;1.65;;;1.33;;
13240;SDS011;6687;47.790;7.322;2023-11-18T13:18:55;1.02;;;0.93;;
13240;SDS011;6687;47.790;7.322;2023-11-18T13:21:22;1.27;;;1.10;;
13240;SDS011;6687;47.790;7.322;2023-11-18T13:23:52;1.55;;;1.45;;
13240;SDS011;6687;47.790;7.322;2023-11-18T13:26:19;1.33;;;1.25;;
13240;SDS011;6687;47.790;7.322;2023-11-18T13:28:46;1.98;;;1.50;;
13240;SDS011;6687;47.790;7.322;2023-11-18T13:31:14;1.00;;;0.98;;
13240;SDS011;6687;47.790;7.322;2023-11-18T13:33:41;1.25;;;0.82;;
13240;SDS011;6687;47.790;7.322;2023-11-18T13:36:09;1.15;;;1.10;;
13240;SDS011;6687;47.790;7.322;2023-11-18T13:38:36;0.85;;;0.85;;
13240;SDS011;6687;47.790;7.322;2023-11-18T13:41:05;1.25;;;1.15;;
13240;SDS011;6687;47.790;7.322;2023-11-18T13:43:43;1.85;;;1.58;;
13240;SDS011;6687;47.790;7.322;2023-11-18T13:46:11;1.45;;;1.10;;
13240;SDS011;6687;47.790;7.322;2023-11-18T13:48:38;1.27;;;1.17;;
13240;SDS011;6687;47.790;7.322;2023-11-18T13:51:07;1.20;;;1.10;;
13240;SDS011;6687;47.790;7.322;2023-11-18T13:53:38;1.17;;;1.02;;
13240;SDS011;6687;47.790;7.322;2023-11-18T13:56:07;0.35;;;0.30;;
13240;SDS011;6687;47.790;7.322;2023-11-18T13:58:35;0.60;;;0.60;;
13240;SDS011;6687;47.790;7.322;2023-11-18T14:01:04;0.50;;;0.50;;
13240;SDS011;6687;47.790;7.322;2023-11-18T14:03:32;1.40;;;1.30;;
13240;SDS011;6687;47.790;7.322;2023-11-18T14:05:59;0.73;;;0.68;;
13240;SDS011;6687;47.790;7.322;2023-11-18T14:08:27;0.75;;;0.75;;
13240;SDS011;6687;47.790;7.322;2023-11-18T14:10:54;0.65;;;0.50;;
13240;SDS011;6687;47.790;7.322;2023-11-18T14:13:22;0.50;;;0.50;;
13240;SDS011;6687;47.790;7.322;2023-11-18T14:15:49;0.40;;;0.40;;
13240;SDS011;6687;47.790;7.322;2023-11-18T14:18:20;0.50;;;0.50;;
13240;SDS011;6687;47.790;7.322;2023-11-18T14:20:48;0.60;;;0.60;;
13240;SDS011;6687;47.790;7.322;2023-11-18T14:23:15;0.63;;;0.60;;
13240;SDS011;6687;47.790;7.322;2023-11-18T14:25:43;1.30;;;0.88;;
13240;SDS011;6687;47.790;7.322;2023-11-18T14:28:10;0.60;;;0.60;;
13240;SDS011;6687;47.790;7.322;2023-11-18T14:30:39;0.93;;;0.60;;
13240;SDS011;6687;47.790;7.322;2023-11-18T14:33:07;0.80;;;0.80;;
13240;SDS011;6687;47.790;7.322;2023-11-18T14:35:35;2.17;;;1.27;;
13240;SDS011;6687;47.790;7.322;2023-11-18T14:38:01;1.20;;;0.93;;
13240;SDS011;6687;47.790;7.322;2023-11-18T14:40:28;1.02;;;1.00;;
13240;SDS011;6687;47.790;7.322;2023-11-18T14:42:55;1.35;;;0.93;;
13240;SDS011;6687;47.790;7.322;2023-11-18T14:45:22;1.23;;;1.15;;
13240;SDS011;6687;47.790;7.322;2023-11-18T14:47:50;1.55;;;1.45;;
13240;SDS011;6687;47.790;7.322;2023-11-18T14:50:18;1.63;;;1.52;;
13240;SDS011;6687;47.790;7.322;2023-11-18T14:52:45;1.17;;;1.13;;
13240;SDS011;6687;47.790;7.322;2023-11-18T14:55:13;1.75;;;1.40;;
13240;SDS011;6687;47.790;7.322;2023-11-18T14:57:42;1.30;;;1.20;;
13240;SDS011;6687;47.790;7.322;2023-11-18T15:00:10;1.75;;;1.42;;
13240;SDS011;6687;47.790;7.322;2023-11-18T15:02:44;1.17;;;1.05;;
13240;SDS011;6687;47.790;7.322;2023-11-18T15:05:14;0.70;;;0.70;;
13240;SDS011;6687;47.790;7.322;2023-11-18T15:07:43;1.33;;;1.15;;
13240;SDS011;6687;47.790;7.322;2023-11-18T15:10:12;1.35;;;1.25;;
13240;SDS011;6687;47.790;7.322;2023-11-18T15:12:44;0.88;;;0.88;;
13240;SDS011;6687;47.790;7.322;2023-11-18T15:15:11;1.05;;;1.00;;
13240;SDS011;6687;47.790;7.322;2023-11-18T15:17:43;1.33;;;1.20;;
13240;SDS011;6687;47.790;7.322;2023-11-18T15:20:11;1.20;;;1.13;;
13240;SDS011;6687;47.790;7.322;2023-11-18T15:22:41;0.77;;;0.73;;
13240;SDS011;6687;47.790;7.322;2023-11-18T15:25:11;0.70;;;0.70;;
13240;SDS011;6687;47.790;7.322;2023-11-18T15:27:41;1.85;;;1.20;;
13240;SDS011;6687;47.790;7.322;2023-11-18T15:30:11;1.40;;;1.30;;
13240;SDS011;6687;47.790;7.322;2023-11-18T15:32:38;1.50;;;1.40;;
13240;SDS011;6687;47.790;7.322;2023-11-18T15:35:06;1.00;;;1.00;;
13240;SDS011;6687;47.790;7.322;2023-11-18T15:37:34;2.38;;;1.80;;
13240;SDS011;6687;47.790;7.322;2023-11-18T15:40:03;1.63;;;1.52;;
13240;SDS011;6687;47.790;7.322;2023-11-18T15:42:36;2.10;;;1.80;;
13240;SDS011;6687;47.790;7.322;2023-11-18T15:45:04;1.33;;;1.30;;
13240;SDS011;6687;47.790;7.322;2023-11-18T15:47:34;2.08;;;1.65;;
13240;SDS011;6687;47.790;7.322;2023-11-18T15:50:03;2.72;;;1.50;;
13240;SDS011;6687;47.790;7.322;2023-11-18T15:52:31;2.42;;;2.22;;
13240;SDS011;6687;47.790;7.322;2023-11-18T15:54:59;3.20;;;2.13;;
13240;SDS011;6687;47.790;7.322;2023-11-18T15:57:27;2.88;;;2.50;;
13240;SDS011;6687;47.790;7.322;2023-11-18T15:59:54;3.08;;;1.88;;
13240;SDS011;6687;47.790;7.322;2023-11-18T16:02:21;2.53;;;1.50;;
13240;SDS011;6687;47.790;7.322;2023-11-18T16:04:47;1.90;;;1.67;;
13240;SDS011;6687;47.790;7.322;2023-11-18T16:07:14;2.08;;;1.85;;
13240;SDS011;6687;47.790;7.322;2023-11-18T16:09:41;1.38;;;1.27;;
13240;SDS011;6687;47.790;7.322;2023-11-18T16:12:07;1.42;;;1.33;;
13240;SDS011;6687;47.790;7.322;2023-11-18T16:14:35;1.60;;;1.50;;
13240;SDS011;6687;47.790;7.322;2023-11-18T16:17:02;2.53;;;1.42;;
13240;SDS011;6687;47.790;7.322;2023-11-18T16:19:32;1.75;;;1.65;;
13240;SDS011;6687;47.790;7.322;2023-11-18T16:21:58;1.40;;;1.30;;
13240;SDS011;6687;47.790;7.322;2023-11-18T16:24:26;1.02;;;0.95;;
13240;SDS011;6687;47.790;7.322;2023-11-18T16:26:52;2.00;;;1.40;;
13240;SDS011;6687;47.790;7.322;2023-11-18T16:29:19;1.65;;;1.10;;
13240;SDS011;6687;47.790;7.322;2023-11-18T16:31:47;1.67;;;1.58;;
13240;SDS011;6687;47.790;7.322;2023-11-18T16:34:15;1.13;;;1.08;;
13240;SDS011;6687;47.790;7.322;2023-11-18T16:36:42;1.10;;;1.00;;
13240;SDS011;6687;47.790;7.322;2023-11-18T16:39:09;1.45;;;1.35;;
13240;SDS011;6687;47.790;7.322;2023-11-18T16:41:37;1.30;;;1.20;;
13240;SDS011;6687;47.790;7.322;2023-11-18T16:44:05;0.88;;;0.88;;
13240;SDS011;6687;47.790;7.322;2023-11-18T16:46:36;1.20;;;1.10;;
13240;SDS011;6687;47.790;7.322;2023-11-18T16:49:06;2.10;;;1.50;;
13240;SDS011;6687;47.790;7.322;2023-11-18T16:51:33;1.88;;;1.75;;
13240;SDS011;6687;47.790;7.322;2023-11-18T16:53:59;1.45;;;1.33;;
13240;SDS011;6687;47.790;7.322;2023-11-18T16:56:28;3.20;;;1.70;;
13240;SDS011;6687;47.790;7.322;2023-11-18T16:58:54;1.73;;;1.50;;
13240;SDS011;6687;47.790;7.322;2023-11-18T17:01:22;1.20;;;0.90;;
13240;SDS011;6687;47.790;7.322;2023-11-18T17:03:49;1.23;;;1.13;;
13240;SDS011;6687;47.790;7.322;2023-11-18T17:06:17;1.42;;;1.33;;
13240;SDS011;6687;47.790;7.322;2023-11-18T17:08:45;1.77;;;1.60;;
13240;SDS011;6687;47.790;7.322;2023-11-18T17:11:12;2.67;;;2.22;;
13240;SDS011;6687;47.790;7.322;2023-11-18T17:13:40;3.75;;;1.63;;
13240;SDS011;6687;47.790;7.322;2023-11-18T17:16:07;3.92;;;1.98;;
13240;SDS011;6687;47.790;7.322;2023-11-18T17:18:34;2.55;;;2.33;;
13240;SDS011;6687;47.790;7.322;2023-11-18T17:21:00;3.45;;;2.03;;
13240;SDS011;6687;47.790;7.322;2023-11-18T17:23:29;1.92;;;1.50;;
13240;SDS011;6687;47.790;7.322;2023-11-18T17:25:56;1.45;;;1.35;;
13240;SDS011;6687;47.790;7.322;2023-11-18T17:28:23;2.25;;;1.65;;
13240;SDS011;6687;47.790;7.322;2023-11-18T17:30:50;1.70;;;1.58;;
13240;SDS011;6687;47.790;7.322;2023-11-18T17:33:16;2.85;;;1.15;;
13240;SDS011;6687;47.790;7.322;2023-11-18T17:35:43;2.75;;;2.00;;
13240;SDS011;6687;47.790;7.322;2023-11-18T17:38:10;3.63;;;1.67;;
13240;SDS011;6687;47.790;7.322;2023-11-18T17:40:39;1.38;;;1.27;;
13240;SDS011;6687;47.790;7.322;2023-11-18T17:43:06;2.38;;;1.48;;
13240;SDS011;6687;47.790;7.322;2023-11-18T17:45:33;1.88;;;1.77;;
13240;SDS011;6687;47.790;7.322;2023-11-18T17:47:59;3.10;;;1.95;;
13240;SDS011;6687;47.790;7.322;2023-11-18T17:50:31;2.20;;;1.60;;
13240;SDS011;6687;47.790;7.322;2023-11-18T17:52:59;2.10;;;1.98;;
13240;SDS011;6687;47.790;7.322;2023-11-18T17:55:27;1.02;;;1.00;;
13240;SDS011;6687;47.790;7.322;2023-11-18T17:57:56;1.20;;;1.10;;
13240;SDS011;6687;47.790;7.322;2023-11-18T18:00:23;2.05;;;1.02;;
13240;SDS011;6687;47.790;7.322;2023-11-18T18:02:52;1.40;;;1.27;;
13240;SDS011;6687;47.790;7.322;2023-11-18T18:05:20;2.50;;;1.92;;
13240;SDS011;6687;47.790;7.322;2023-11-18T18:07:48;3.65;;;2.08;;
13240;SDS011;6687;47.790;7.322;2023-11-18T18:10:14;1.33;;;0.98;;
13240;SDS011;6687;47.790;7.322;2023-11-18T18:12:40;0.90;;;0.82;;
13240;SDS011;6687;47.790;7.322;2023-11-18T18:15:13;1.55;;;1.40;;
13240;SDS011;6687;47.790;7.322;2023-11-18T18:17:39;2.33;;;1.52;;
13240;SDS011;6687;47.790;7.322;2023-11-18T18:20:07;1.52;;;1.42;;
13240;SDS011;6687;47.790;7.322;2023-11-18T18:22:34;1.40;;;1.30;;
13240;SDS011;6687;47.790;7.322;2023-11-18T18:25:01;1.30;;;1.20;;
13240;SDS011;6687;47.790;7.322;2023-11-18T18:27:28;2.05;;;1.15;;
13240;SDS011;6687;47.790;7.322;2023-11-18T18:29:57;2.97;;;1.08;;
13240;SDS011;6687;47.790;7.322;2023-11-18T18:32:25;0.82;;;0.82;;
13240;SDS011;6687;47.790;7.322;2023-11-18T18:34:52;1.50;;;1.25;;
13240;SDS011;6687;47.790;7.322;2023-11-18T18:37:19;2.65;;;1.10;;
13240;SDS011;6687;47.790;7.322;2023-11-18T18:39:47;1.02;;;1.02;;
13240;SDS011;6687;47.790;7.322;2023-11-18T18:42:16;1.25;;;1.02;;
13240;SDS011;6687;47.790;7.322;2023-11-18T18:44:42;1.15;;;1.05;;
13240;SDS011;6687;47.790;7.322;2023-11-18T18:47:09;1.65;;;1.17;;
13240;SDS011;6687;47.790;7.322;2023-11-18T18:49:37;1.17;;;1.08;;
13240;SDS011;6687;47.790;7.322;2023-11-18T18:52:04;1.30;;;1.20;;
13240;SDS011;6687;47.790;7.322;2023-11-18T18:54:31;0.93;;;0.85;;
13240;SDS011;6687;47.790;7.322;2023-11-18T18:56:58;1.45;;;1.20;;
13240;SDS011;6687;47.790;7.322;2023-11-18T18:59:25;1.30;;;1.05;;
13240;SDS011;6687;47.790;7.322;2023-11-18T19:01:51;0.98;;;0.85;;
13240;SDS011;6687;47.790;7.322;2023-11-18T19:04:18;0.60;;;0.60;;
13240;SDS011;6687;47.790;7.322;2023-11-18T19:06:47;1.45;;;1.35;;
13240;SDS011;6687;47.790;7.322;2023-11-18T19:09:14;1.92;;;1.58;;
13240;SDS011;6687;47.790;7.322;2023-11-18T19:11:43;2.40;;;1.35;;
13240;SDS011;6687;47.790;7.322;2023-11-18T19:14:09;1.63;;;1.52;;
13240;SDS011;6687;47.790;7.322;2023-11-18T19:16:36;1.50;;;1.40;;
13240;SDS011;6687;47.790;7.322;2023-11-18T19:19:03;1.88;;;1.52;;
13240;SDS011;6687;47.790;7.322;2023-11-18T19:21:30;1.38;;;1.05;;
13240;SDS011;6687;47.790;7.322;2023-11-18T19:23:59;1.27;;;1.17;;
13240;SDS011;6687;47.790;7.322;2023-11-18T19:26:26;0.82;;;0.82;;
13240;SDS011;6687;47.790;7.322;2023-11-18T19:28:52;1.08;;;1.08;;
13240;SDS011;6687;47.790;7.322;2023-11-18T19:31:19;2.00;;;1.38;;
13240;SDS011;6687;47.790;7.322;2023-11-18T19:33:46;1.40;;;1.30;;
13240;SDS011;6687;47.790;7.322;2023-11-18T19:36:12;1.45;;;0.93;;
13240;SDS011;6687;47.790;7.322;2023-11-18T19:38:40;2.35;;;1.27;;
13240;SDS011;6687;47.790;7.322;2023-11-18T19:41:08;1.85;;;1.23;;
13240;SDS011;6687;47.790;7.322;2023-11-18T19:43:35;1.00;;;0.90;;
13240;SDS011;6687;47.790;7.322;2023-11-18T19:46:01;1.30;;;1.05;;
13240;SDS011;6687;47.790;7.322;2023-11-18T19:48:28;0.85;;;0.82;;
13240;SDS011;6687;47.790;7.322;2023-11-18T19:50:56;2.67;;;1.20;;
13240;SDS011;6687;47.790;7.322;2023-11-18T19:53:23;2.17;;;1.15;;
13240;SDS011;6687;47.790;7.322;2023-11-18T19:55:50;1.30;;;1.20;;
13240;SDS011;6687;47.790;7.322;2023-11-18T19:58:19;1.08;;;0.85;;
13240;SDS011;6687;47.790;7.322;2023-11-18T20:00:47;0.82;;;0.82;;
13240;SDS011;6687;47.790;7.322;2023-11-18T20:03:15;1.95;;;1.20;;
13240;SDS011;6687;47.790;7.322;2023-11-18T20:05:42;2.08;;;1.15;;
13240;SDS011;6687;47.790;7.322;2023-11-18T20:08:08;1.63;;;1.48;;
13240;SDS011;6687;47.790;7.322;2023-11-18T20:10:35;2.22;;;1.67;;
13240;SDS011;6687;47.790;7.322;2023-11-18T20:13:02;3.60;;;1.52;;
13240;SDS011;6687;47.790;7.322;2023-11-18T20:15:31;2.17;;;1.40;;
13240;SDS011;6687;47.790;7.322;2023-11-18T20:17:57;2.75;;;1.33;;
13240;SDS011;6687;47.790;7.322;2023-11-18T20:20:24;2.40;;;1.67;;
13240;SDS011;6687;47.790;7.322;2023-11-18T20:22:52;2.10;;;1.27;;
13240;SDS011;6687;47.790;7.322;2023-11-18T20:25:18;1.58;;;1.02;;
13240;SDS011;6687;47.790;7.322;2023-11-18T20:27:45;2.08;;;1.17;;
13240;SDS011;6687;47.790;7.322;2023-11-18T20:30:12;0.75;;;0.75;;
13240;SDS011;6687;47.790;7.322;2023-11-18T20:32:40;2.03;;;1.50;;
13240;SDS011;6687;47.790;7.322;2023-11-18T20:35:08;0.80;;;0.80;;
13240;SDS011;6687;47.790;7.322;2023-11-18T20:37:35;2.08;;;1.50;;
13240;SDS011;6687;47.790;7.322;2023-11-18T20:40:02;2.53;;;1.42;;
13240;SDS011;6687;47.790;7.322;2023-11-18T20:42:31;0.85;;;0.85;;
13240;SDS011;6687;47.790;7.322;2023-11-18T20:45:00;1.38;;;0.85;;
13240;SDS011;6687;47.790;7.322;2023-11-18T20:47:27;0.52;;;0.52;;
13240;SDS011;6687;47.790;7.322;2023-11-18T20:49:55;1.17;;;1.08;;
13240;SDS011;6687;47.790;7.322;2023-11-18T20:52:22;1.23;;;1.13;;
13240;SDS011;6687;47.790;7.322;2023-11-18T20:54:50;0.82;;;0.82;;
13240;SDS011;6687;47.790;7.322;2023-11-18T20:57:17;1.27;;;1.02;;
13240;SDS011;6687;47.790;7.322;2023-11-18T20:59:45;1.45;;;1.17;;
13240;SDS011;6687;47.790;7.322;2023-11-18T21:02:12;2.95;;;1.33;;
13240;SDS011;6687;47.790;7.322;2023-11-18T21:04:38;0.88;;;0.88;;
13240;SDS011;6687;47.790;7.322;2023-11-18T21:07:06;1.52;;;1.42;;
13240;SDS011;6687;47.790;7.322;2023-11-18T21:09:34;2.72;;;1.25;;
13240;SDS011;6687;47.790;7.322;2023-11-18T21:12:01;2.17;;;1.65;;
13240;SDS011;6687;47.790;7.322;2023-11-18T21:14:28;1.08;;;0.95;;
13240;SDS011;6687;47.790;7.322;2023-11-18T21:16:55;1.02;;;0.98;;
13240;SDS011;6687;47.790;7.322;2023-11-18T21:19:22;1.08;;;1.08;;
13240;SDS011;6687;47.790;7.322;2023-11-18T21:21:48;1.08;;;1.08;;
13240;SDS011;6687;47.790;7.322;2023-11-18T21:24:16;1.33;;;1.27;;
13240;SDS011;6687;47.790;7.322;2023-11-18T21:26:43;0.98;;;0.98;;
13240;SDS011;6687;47.790;7.322;2023-11-18T21:29:10;1.00;;;0.93;;
13240;SDS011;6687;47.790;7.322;2023-11-18T21:31:37;1.15;;;0.95;;
13240;SDS011;6687;47.790;7.322;2023-11-18T21:34:04;1.30;;;1.27;;
13240;SDS011;6687;47.790;7.322;2023-11-18T21:36:31;1.17;;;1.17;;